Time;durP1;ratioP1;P1;durP2;ratioP2;P2;SDS_P1;SDS_P2;PMS_P1;PMS_P2;Temp;Humidity;BMP_temperature;BMP_pressure;BME280_temperature;BME280_humidity;BME280_pressure;Samples;Min_cycle;Max_cycle;Signal;HPM_P1;HPM_P2
2022/10/07 00:02:18;;;;;;;17.50;4.00;;;;;;;;;;5011373;28;20063;-67
2022/10/07 00:04:45;;;;;;;17.17;3.63;;;;;;;;;;4993782;28;20056;-67
2022/10/07 00:07:12;;;;;;;17.35;3.75;;;;;;;;;;5011437;28;20049;-67
2022/10/07 00:09:38;;;;;;;19.17;4.00;;;;;;;;;;4993464;28;20078;-68
2022/10/07 00:12:05;;;;;;;20.08;3.60;;;;;;;;;;5011103;28;20054;-68
2022/10/07 00:14:31;;;;;;;21.25;5.35;;;;;;;;;;5011046;28;20422;-68
2022/10/07 00:16:57;;;;;;;25.02;4.18;;;;;;;;;;4993185;28;20087;-68
2022/10/07 00:19:23;;;;;;;15.25;3.97;;;;;;;;;;5011144;28;20358;-67
2022/10/07 00:21:50;;;;;;;19.08;4.18;;;;;;;;;;5011316;28;20125;-69
2022/10/07 00:24:16;;;;;;;;;;;;;;;;;;4993833;28;20064;-68
2022/10/07 00:26:42;;;;;;;16.83;4.25;;;;;;;;;;5010535;28;20016;-67
2022/10/07 00:29:08;;;;;;;20.08;4.70;;;;;;;;;;5010502;28;20427;-67
2022/10/07 00:31:36;;;;;;;15.30;3.95;;;;;;;;;;5010684;28;20080;-68
2022/10/07 00:34:03;;;;;;;21.00;3.80;;;;;;;;;;5010724;28;20125;-68
2022/10/07 00:36:31;;;;;;;19.92;3.88;;;;;;;;;;5010468;28;20084;-69
2022/10/07 00:38:58;;;;;;;19.27;4.88;;;;;;;;;;5010601;28;20046;-68
2022/10/07 00:41:29;;;;;;;17.63;4.20;;;;;;;;;;4992496;28;20378;-67
2022/10/07 00:43:56;;;;;;;18.60;3.88;;;;;;;;;;5010572;28;20081;-67
2022/10/07 00:46:36;;;;;;;22.45;4.28;;;;;;;;;;5009971;28;20138;-68
2022/10/07 00:49:08;;;;;;;15.63;4.05;;;;;;;;;;5010121;28;20045;-68
2022/10/07 00:51:34;;;;;;;19.02;4.43;;;;;;;;;;5010001;28;20466;-67
2022/10/07 00:54:01;;;;;;;;;;;;;;;;;;5010312;28;20487;-69
2022/10/07 00:56:28;;;;;;;17.15;4.32;;;;;;;;;;4992657;28;19988;-69
2022/10/07 00:58:54;;;;;;;19.58;5.00;;;;;;;;;;4992217;28;20118;-67
2022/10/07 01:01:20;;;;;;;16.10;4.22;;;;;;;;;;5010288;28;20129;-67
2022/10/07 01:03:46;;;;;;;;;;;;;;;;;;5010552;28;20042;-68
2022/10/07 01:06:13;;;;;;;16.95;4.03;;;;;;;;;;5010146;28;19921;-67
2022/10/07 01:08:39;;;;;;;20.67;4.40;;;;;;;;;;5010068;28;20157;-67
2022/10/07 01:11:12;;;;;;;;;;;;;;;;;;5010365;28;20357;-67
2022/10/07 01:13:41;;;;;;;16.25;4.20;;;;;;;;;;4992750;28;19922;-67
2022/10/07 01:16:15;;;;;;;17.92;4.63;;;;;;;;;;5009758;28;20037;-68
2022/10/07 01:18:41;;;;;;;20.77;4.57;;;;;;;;;;5009803;28;20136;-67
2022/10/07 01:21:42;;;;;;;18.00;5.13;;;;;;;;;;5009718;28;20050;-67
2022/10/07 01:24:21;;;;;;;25.48;4.90;;;;;;;;;;4929724;29;20580;-68
2022/10/07 01:26:51;;;;;;;17.48;4.65;;;;;;;;;;5001324;28;20200;-70
2022/10/07 01:29:20;;;;;;;19.63;5.00;;;;;;;;;;5009729;28;20125;-66
2022/10/07 01:31:49;;;;;;;21.20;5.25;;;;;;;;;;4991972;28;20065;-68
2022/10/07 01:34:16;;;;;;;18.15;4.80;;;;;;;;;;5009836;28;20166;-66
2022/10/07 01:36:50;;;;;;;18.58;4.95;;;;;;;;;;5009938;28;20045;-66
2022/10/07 01:39:17;;;;;;;17.35;5.20;;;;;;;;;;5010264;28;20137;-66
2022/10/07 01:41:43;;;;;;;18.80;4.95;;;;;;;;;;4992259;28;20042;-67
2022/10/07 01:44:11;;;;;;;18.70;4.85;;;;;;;;;;5009866;28;20046;-67
2022/10/07 01:46:37;;;;;;;18.58;5.18;;;;;;;;;;5009746;28;20061;-67
2022/10/07 01:49:04;;;;;;;18.13;4.65;;;;;;;;;;5009846;28;20068;-66
2022/10/07 01:51:33;;;;;;;19.92;4.38;;;;;;;;;;5009524;28;20054;-67
2022/10/07 01:54:01;;;;;;;16.33;4.90;;;;;;;;;;5009469;28;20094;-67
2022/10/07 01:56:52;;;;;;;16.30;4.50;;;;;;;;;;4975836;28;20101;-67
2022/10/07 01:59:20;;;;;;;17.15;5.50;;;;;;;;;;5011593;28;20042;-68
2022/10/07 02:01:55;;;;;;;18.38;4.93;;;;;;;;;;4996058;28;20477;-67
2022/10/07 02:04:34;;;;;;;20.45;5.30;;;;;;;;;;5013511;28;20041;-67
2022/10/07 02:07:07;;;;;;;17.27;5.53;;;;;;;;;;4995718;28;20157;-68
2022/10/07 02:09:42;;;;;;;20.70;5.15;;;;;;;;;;4995762;28;20081;-67
2022/10/07 02:12:14;;;;;;;16.35;5.03;;;;;;;;;;5013505;28;20052;-67
2022/10/07 02:14:44;;;;;;;17.55;4.90;;;;;;;;;;4995677;28;20081;-67
2022/10/07 02:17:17;;;;;;;16.38;4.63;;;;;;;;;;5013023;28;20448;-67
2022/10/07 02:19:46;;;;;;;17.05;4.97;;;;;;;;;;4995298;28;20058;-67
2022/10/07 02:22:13;;;;;;;17.08;5.03;;;;;;;;;;4995556;28;20444;-66
2022/10/07 02:24:39;;;;;;;18.80;5.53;;;;;;;;;;4995332;28;20077;-69
2022/10/07 02:27:08;;;;;;;18.60;5.20;;;;;;;;;;4995455;28;20085;-68
2022/10/07 02:29:35;;;;;;;22.75;5.75;;;;;;;;;;5012841;28;20045;-66
2022/10/07 02:32:03;;;;;;;18.65;4.80;;;;;;;;;;4995067;28;20061;-67
2022/10/07 02:34:30;;;;;;;16.35;5.38;;;;;;;;;;4995095;28;20413;-67
2022/10/07 02:36:59;;;;;;;18.45;5.40;;;;;;;;;;5012928;28;20057;-70
2022/10/07 02:39:26;;;;;;;21.90;5.95;;;;;;;;;;5012485;28;20141;-67
2022/10/07 02:42:00;;;;;;;14.48;5.10;;;;;;;;;;5012668;28;20065;-67
2022/10/07 02:44:45;;;;;;;19.98;5.20;;;;;;;;;;5013030;28;20065;-66
2022/10/07 02:47:17;;;;;;;21.17;5.72;;;;;;;;;;4995169;28;20128;-67
2022/10/07 02:49:47;;;;;;;20.23;5.50;;;;;;;;;;5012306;28;20133;-66
2022/10/07 02:52:18;;;;;;;18.48;5.35;;;;;;;;;;4995023;28;20054;-67
2022/10/07 02:54:51;;;;;;;20.80;5.65;;;;;;;;;;5012729;28;20096;-67
2022/10/07 02:57:18;;;;;;;19.67;5.30;;;;;;;;;;4995060;28;20068;-68
2022/10/07 02:59:46;;;;;;;20.00;5.47;;;;;;;;;;5012587;28;20136;-67
2022/10/07 03:02:14;;;;;;;19.45;5.80;;;;;;;;;;5012541;28;20059;-68
2022/10/07 03:04:41;;;;;;;26.75;6.43;;;;;;;;;;4994926;28;20054;-67
2022/10/07 03:07:07;;;;;;;17.75;5.53;;;;;;;;;;5012420;28;20346;-67
2022/10/07 03:09:34;;;;;;;19.67;5.57;;;;;;;;;;5012053;28;20096;-68
2022/10/07 03:12:00;;;;;;;18.45;5.65;;;;;;;;;;4993941;28;20129;-70
2022/10/07 03:14:26;;;;;;;17.63;5.32;;;;;;;;;;4994281;28;20042;-67
2022/10/07 03:16:52;;;;;;;17.45;5.47;;;;;;;;;;4978596;28;20050;-67
2022/10/07 03:19:19;;;;;;;19.63;5.80;;;;;;;;;;4994223;28;20058;-71
2022/10/07 03:21:45;;;;;;;23.90;6.00;;;;;;;;;;4994940;28;20072;-69
2022/10/07 03:24:11;;;;;;;16.27;5.43;;;;;;;;;;4994802;28;20061;-66
2022/10/07 03:26:37;;;;;;;;;;;;;;;;;;5012830;28;20080;-67
2022/10/07 03:29:04;;;;;;;17.98;5.28;;;;;;;;;;5011813;28;19937;-71
2022/10/07 03:31:30;;;;;;;20.30;5.78;;;;;;;;;;4994185;28;20042;-67
2022/10/07 03:33:56;;;;;;;21.58;5.95;;;;;;;;;;5011826;28;20085;-67
2022/10/07 03:36:23;;;;;;;20.25;5.72;;;;;;;;;;5011673;28;20045;-67
2022/10/07 03:38:49;;;;;;;20.38;5.85;;;;;;;;;;5011830;28;20046;-66
2022/10/07 03:41:16;;;;;;;22.77;5.88;;;;;;;;;;5011599;28;20105;-67
2022/10/07 03:43:42;;;;;;;;;;;;;;;;;;5012010;28;20108;-67
2022/10/07 03:46:08;;;;;;;24.00;5.93;;;;;;;;;;4977475;28;19999;-68
2022/10/07 03:48:34;;;;;;;17.58;5.50;;;;;;;;;;5011356;28;20351;-68
2022/10/07 03:51:00;;;;;;;24.05;6.10;;;;;;;;;;4993826;28;20190;-67
2022/10/07 03:53:28;;;;;;;17.98;5.88;;;;;;;;;;5011478;28;20050;-68
2022/10/07 03:55:54;;;;;;;21.35;6.40;;;;;;;;;;4993910;28;20061;-67
2022/10/07 03:58:20;;;;;;;;;;;;;;;;;;5011607;28;20096;-68
2022/10/07 04:00:46;;;;;;;24.50;6.00;;;;;;;;;;4994122;28;19921;-68
2022/10/07 04:03:14;;;;;;;20.23;5.72;;;;;;;;;;5011390;28;20053;-68
2022/10/07 04:05:40;;;;;;;18.95;6.15;;;;;;;;;;4993920;28;20072;-68
2022/10/07 04:08:06;;;;;;;20.27;6.25;;;;;;;;;;5011309;28;20090;-67
2022/10/07 04:10:32;;;;;;;19.80;5.88;;;;;;;;;;5011176;28;20046;-68
2022/10/07 04:12:58;;;;;;;;;;;;;;;;;;5011512;28;20085;-67
2022/10/07 04:15:24;;;;;;;22.75;7.22;;;;;;;;;;4976971;28;20022;-69
2022/10/07 04:17:54;;;;;;;21.95;6.70;;;;;;;;;;5011113;28;20149;-67
2022/10/07 04:20:20;;;;;;;21.23;6.43;;;;;;;;;;4992625;28;20531;-67
2022/10/07 04:22:46;;;;;;;22.92;6.30;;;;;;;;;;5010650;28;20050;-67
2022/10/07 04:27:58;;;;;;;21.42;6.22;;;;;;;;;;4993327;28;20156;-68
2022/10/07 04:30:25;;;;;;;20.65;7.07;;;;;;;;;;5010807;28;20085;-67
2022/10/07 04:32:52;;;;;;;24.52;6.50;;;;;;;;;;4993230;28;20060;-68
2022/10/07 04:35:17;;;;;;;;;;;;;;;;;;5011338;28;20319;-69
2022/10/07 04:37:43;;;;;;;20.77;6.13;;;;;;;;;;5010928;28;19953;-68
2022/10/07 04:40:10;;;;;;;22.15;6.20;;;;;;;;;;4977189;28;20083;-68
2022/10/07 04:45:20;;;;;;;19.48;6.40;;;;;;;;;;5010471;28;20449;-69
2022/10/07 04:47:47;;;;;;;22.67;7.00;;;;;;;;;;5010474;28;20046;-68
2022/10/07 04:50:13;;;;;;;22.23;6.97;;;;;;;;;;5010560;28;20046;-68
2022/10/07 04:52:40;;;;;;;23.80;6.40;;;;;;;;;;4976841;28;20053;-67
2022/10/07 04:55:06;;;;;;;22.15;6.65;;;;;;;;;;4992260;28;20463;-68
2022/10/07 04:57:32;;;;;;;26.00;7.07;;;;;;;;;;4992865;28;20046;-67
2022/10/07 04:59:58;;;;;;;22.63;6.50;;;;;;;;;;5010266;28;20180;-70
2022/10/07 05:02:24;;;;;;;23.08;6.10;;;;;;;;;;4976325;28;20123;-67
2022/10/07 05:04:50;;;;;;;25.08;6.47;;;;;;;;;;5010097;28;20056;-67
2022/10/07 05:07:17;;;;;;;24.63;7.32;;;;;;;;;;5009838;28;20446;-69
2022/10/07 05:09:43;;;;;;;27.75;6.90;;;;;;;;;;5011609;28;20072;-67
2022/10/07 05:12:09;;;;;;;22.60;7.32;;;;;;;;;;4993091;28;20163;-68
2022/10/07 05:14:35;;;;;;;25.55;7.05;;;;;;;;;;4994083;28;20061;-68
2022/10/07 05:17:02;;;;;;;30.77;8.27;;;;;;;;;;5011810;28;20064;-68
2022/10/07 05:19:28;;;;;;;23.38;7.70;;;;;;;;;;5009814;28;20358;-68
2022/10/07 05:21:54;;;;;;;23.20;6.72;;;;;;;;;;5009859;28;20133;-67
2022/10/07 05:24:21;;;;;;;25.17;6.85;;;;;;;;;;4991890;28;20153;-69
2022/10/07 05:26:47;;;;;;;22.38;6.93;;;;;;;;;;4975913;28;20453;-71
2022/10/07 05:29:13;;;;;;;24.13;7.50;;;;;;;;;;4991880;28;20088;-67
2022/10/07 05:31:39;;;;;;;28.65;7.57;;;;;;;;;;5009710;28;20056;-68
2022/10/07 05:34:05;;;;;;;29.08;7.30;;;;;;;;;;5009086;28;20106;-68
2022/10/07 05:36:31;;;;;;;34.55;7.25;;;;;;;;;;5009548;28;20052;-68
2022/10/07 05:38:57;;;;;;;24.63;7.20;;;;;;;;;;5009683;28;20145;-68
2022/10/07 05:41:23;;;;;;;25.25;7.90;;;;;;;;;;5009644;28;20042;-70
2022/10/07 05:43:50;;;;;;;30.92;7.60;;;;;;;;;;5009273;28;20342;-69
2022/10/07 05:46:21;;;;;;;27.45;8.30;;;;;;;;;;5009373;28;20489;-67
2022/10/07 05:48:48;;;;;;;22.35;8.32;;;;;;;;;;5009340;28;20049;-67
2022/10/07 05:51:14;;;;;;;;;;;;;;;;;;4992289;28;20397;-68
2022/10/07 05:53:41;;;;;;;22.42;8.00;;;;;;;;;;5009312;28;20399;-68
2022/10/07 05:56:09;;;;;;;31.60;8.07;;;;;;;;;;5009451;28;20050;-68
2022/10/07 05:58:35;;;;;;;30.15;8.70;;;;;;;;;;5009092;28;20038;-66
2022/10/07 06:01:02;;;;;;;24.92;7.40;;;;;;;;;;5009373;28;20053;-67
2022/10/07 06:03:28;;;;;;;28.63;7.57;;;;;;;;;;5009432;28;20470;-68
2022/10/07 06:05:54;;;;;;;;;;;;;;;;;;5009969;28;20057;-67
2022/10/07 06:08:21;;;;;;;31.70;8.88;;;;;;;;;;4991556;28;19922;-68
2022/10/07 06:13:32;;;;;;;24.10;7.78;;;;;;;;;;5009043;28;20053;-66
2022/10/07 06:16:05;;;;;;;24.65;7.57;;;;;;;;;;5009364;28;20175;-67
2022/10/07 06:18:31;;;;;;;24.45;9.23;;;;;;;;;;5009120;28;20066;-67
2022/10/07 06:21:01;;;;;;;25.17;7.28;;;;;;;;;;4991610;28;20054;-68
2022/10/07 06:23:28;;;;;;;27.92;8.63;;;;;;;;;;5008890;28;20093;-68
2022/10/07 06:26:04;;;;;;;28.63;8.82;;;;;;;;;;5009223;28;20076;-67
2022/10/07 06:28:40;;;;;;;26.05;8.13;;;;;;;;;;5009267;28;20077;-68
2022/10/07 06:31:14;;;;;;;24.90;8.43;;;;;;;;;;5008690;28;20473;-70
2022/10/07 06:33:40;;;;;;;24.40;8.30;;;;;;;;;;5008919;28;20129;-67
2022/10/07 06:36:07;;;;;;;26.88;7.95;;;;;;;;;;4991524;28;20482;-67
2022/10/07 06:38:33;;;;;;;24.67;8.00;;;;;;;;;;5008715;28;20133;-68
2022/10/07 06:41:00;;;;;;;28.55;9.30;;;;;;;;;;5009149;28;20052;-67
2022/10/07 06:43:29;;;;;;;27.42;8.07;;;;;;;;;;5009458;28;20061;-66
2022/10/07 06:45:57;;;;;;;26.10;8.00;;;;;;;;;;5011783;28;20042;-66
2022/10/07 06:48:24;;;;;;;30.83;8.75;;;;;;;;;;5012396;28;20057;-68
2022/10/07 06:50:50;;;;;;;;;;;;;;;;;;5012872;28;20097;-67
2022/10/07 06:53:16;;;;;;;31.90;7.75;;;;;;;;;;4994965;28;19921;-66
2022/10/07 06:55:42;;;;;;;25.00;7.88;;;;;;;;;;5012582;28;20045;-66
2022/10/07 06:58:08;;;;;;;26.48;8.20;;;;;;;;;;5012584;28;20407;-68
2022/10/07 07:00:35;;;;;;;32.58;8.52;;;;;;;;;;5012461;28;20057;-69
2022/10/07 07:03:01;;;;;;;29.70;8.25;;;;;;;;;;5012322;28;20057;-69
2022/10/07 07:05:37;;;;;;;21.10;7.80;;;;;;;;;;5012646;28;20389;-66
2022/10/07 07:08:04;;;;;;;30.55;8.23;;;;;;;;;;5012498;28;20068;-66
2022/10/07 07:10:30;;;;;;;28.85;8.27;;;;;;;;;;5012302;28;20064;-67
2022/10/07 07:12:56;;;;;;;25.10;8.00;;;;;;;;;;4994416;28;20046;-64
2022/10/07 07:15:22;;;;;;;;;;;;;;;;;;5012587;28;20061;-65
2022/10/07 07:17:48;;;;;;;26.40;8.48;;;;;;;;;;5012109;28;19921;-67
2022/10/07 07:20:14;;;;;;;33.97;8.05;;;;;;;;;;4974900;28;20070;-69
2022/10/07 07:22:42;;;;;;;41.83;9.75;;;;;;;;;;4971848;28;20062;-68
2022/10/07 07:25:08;;;;;;;25.05;8.30;;;;;;;;;;4973049;28;20117;-66
2022/10/07 07:27:35;;;;;;;25.30;8.35;;;;;;;;;;4972876;28;20138;-67
2022/10/07 07:30:01;;;;;;;;;;;;;;;;;;4973252;28;20142;-67
2022/10/07 07:32:29;;;;;;;27.92;7.80;;;;;;;;;;4972921;28;19961;-69
2022/10/07 07:34:55;;;;;;;31.13;8.45;;;;;;;;;;4972556;28;20109;-67
2022/10/07 07:37:21;;;;;;;23.05;7.93;;;;;;;;;;4971277;28;20127;-69
2022/10/07 07:39:48;;;;;;;24.75;7.90;;;;;;;;;;4972537;28;20042;-67
2022/10/07 07:42:14;;;;;;;25.92;8.00;;;;;;;;;;4972590;28;20057;-68
2022/10/07 07:44:40;;;;;;;24.27;8.50;;;;;;;;;;4972394;28;20077;-69
2022/10/07 07:47:07;;;;;;;25.00;8.25;;;;;;;;;;4972565;28;20046;-66
2022/10/07 07:49:34;;;;;;;29.77;8.02;;;;;;;;;;4972268;28;20069;-66
2022/10/07 07:52:01;;;;;;;29.27;8.30;;;;;;;;;;4972215;28;20050;-68
2022/10/07 07:54:27;;;;;;;32.88;8.63;;;;;;;;;;4972085;28;20081;-67
2022/10/07 07:56:54;;;;;;;24.77;7.25;;;;;;;;;;4971019;28;20506;-65
2022/10/07 07:59:20;;;;;;;27.15;7.50;;;;;;;;;;4969996;28;20345;-65
2022/10/07 08:01:46;;;;;;;23.10;7.85;;;;;;;;;;4971856;28;20112;-67
2022/10/07 08:04:14;;;;;;;29.20;7.18;;;;;;;;;;4972117;28;20134;-68
2022/10/07 08:06:40;;;;;;;22.95;7.55;;;;;;;;;;4972051;28;20054;-69
2022/10/07 08:09:06;;;;;;;;;;;;;;;;;;4972234;28;20054;-66
2022/10/07 08:11:32;;;;;;;30.85;8.00;;;;;;;;;;4971513;28;19948;-67
2022/10/07 08:13:58;;;;;;;27.52;7.20;;;;;;;;;;4970272;28;20064;-65
2022/10/07 08:16:25;;;;;;;;;;;;;;;;;;4972433;28;20148;-65
2022/10/07 08:18:51;;;;;;;25.95;6.90;;;;;;;;;;4969711;28;20249;-67
2022/10/07 08:21:19;;;;;;;28.52;7.80;;;;;;;;;;4971933;28;20068;-66
2022/10/07 08:23:49;;;;;;;25.92;7.07;;;;;;;;;;4971497;28;20134;-66
2022/10/07 08:26:15;;;;;;;25.98;7.20;;;;;;;;;;4970290;28;20383;-67
2022/10/07 08:28:41;;;;;;;28.20;7.60;;;;;;;;;;4971500;28;20046;-70
2022/10/07 08:31:07;;;;;;;;;;;;;;;;;;4971996;28;20043;-67
2022/10/07 08:33:41;;;;;;;26.40;8.18;;;;;;;;;;4971997;28;20357;-66
2022/10/07 08:36:10;;;;;;;24.30;6.70;;;;;;;;;;4971955;28;20050;-71
2022/10/07 08:38:37;;;;;;;29.48;7.25;;;;;;;;;;4971679;28;20043;-67
2022/10/07 08:41:24;;;;;;;25.42;6.90;;;;;;;;;;4971445;28;20046;-66
2022/10/07 08:43:50;;;;;;;22.73;6.10;;;;;;;;;;4958095;28;20059;-66
2022/10/07 08:46:26;;;;;;;24.38;6.88;;;;;;;;;;4971542;28;20435;-65
2022/10/07 08:48:58;;;;;;;24.35;6.47;;;;;;;;;;4971464;28;20049;-67
2022/10/07 08:51:27;;;;;;;24.90;6.55;;;;;;;;;;4971401;28;20051;-65
2022/10/07 08:53:55;;;;;;;25.85;6.97;;;;;;;;;;4971426;28;20399;-67
2022/10/07 08:56:22;;;;;;;23.17;6.68;;;;;;;;;;4970064;28;20050;-65
2022/10/07 08:58:48;;;;;;;26.95;6.75;;;;;;;;;;4970867;28;20039;-69
2022/10/07 09:01:30;;;;;;;23.25;6.93;;;;;;;;;;4971134;28;20097;-66
2022/10/07 09:03:56;;;;;;;24.17;6.70;;;;;;;;;;4971059;28;20512;-67
2022/10/07 09:06:54;;;;;;;23.08;6.38;;;;;;;;;;4953827;28;20134;-66
2022/10/07 09:09:26;;;;;;;26.92;6.90;;;;;;;;;;4955987;28;20051;-75
2022/10/07 09:11:54;;;;;;;24.05;6.45;;;;;;;;;;4971039;28;20320;-68
2022/10/07 09:14:20;;;;;;;26.20;7.03;;;;;;;;;;4970620;28;20154;-67
2022/10/07 09:16:47;;;;;;;24.52;6.55;;;;;;;;;;4970923;28;20161;-68
2022/10/07 09:19:17;;;;;;;24.05;6.97;;;;;;;;;;4968874;28;20098;-66
2022/10/07 09:21:48;;;;;;;26.40;7.25;;;;;;;;;;4970623;28;20161;-69
2022/10/07 09:24:26;;;;;;;19.50;6.50;;;;;;;;;;4969373;28;20081;-67
2022/10/07 09:26:54;;;;;;;26.08;6.03;;;;;;;;;;4970733;28;20080;-66
2022/10/07 09:29:22;;;;;;;25.15;6.72;;;;;;;;;;4970523;28;20054;-69
2022/10/07 09:31:48;;;;;;;27.67;6.50;;;;;;;;;;4969185;28;20086;-67
2022/10/07 09:34:20;;;;;;;24.98;6.50;;;;;;;;;;4970508;28;20050;-72
2022/10/07 09:37:04;;;;;;;22.67;6.05;;;;;;;;;;4970454;28;20086;-70
2022/10/07 09:39:30;;;;;;;31.13;6.07;;;;;;;;;;4970470;28;20054;-65
2022/10/07 09:41:56;;;;;;;26.48;6.90;;;;;;;;;;4970671;28;20042;-67
2022/10/07 09:44:25;;;;;;;26.08;6.10;;;;;;;;;;4970389;28;20121;-67
2022/10/07 09:46:53;;;;;;;18.50;5.70;;;;;;;;;;4969583;28;20064;-72
2022/10/07 09:49:28;;;;;;;24.88;6.85;;;;;;;;;;4970617;28;20113;-69
2022/10/07 09:52:01;;;;;;;17.38;5.38;;;;;;;;;;4969148;28;20054;-72
2022/10/07 09:54:28;;;;;;;23.10;6.07;;;;;;;;;;4970657;28;20513;-67
2022/10/07 09:56:58;;;;;;;25.77;6.38;;;;;;;;;;4970551;28;20089;-70
2022/10/07 09:59:29;;;;;;;23.52;5.72;;;;;;;;;;4970746;28;20063;-67
2022/10/07 10:01:59;;;;;;;25.10;5.85;;;;;;;;;;4970612;28;20047;-71
2022/10/07 10:04:35;;;;;;;21.60;5.45;;;;;;;;;;4970753;28;20046;-66
2022/10/07 10:07:06;;;;;;;21.95;6.00;;;;;;;;;;4970803;28;20117;-70
2022/10/07 10:09:32;;;;;;;21.42;5.70;;;;;;;;;;4970679;28;20042;-65
2022/10/07 10:12:12;;;;;;;20.30;5.72;;;;;;;;;;4970522;28;20081;-69
2022/10/07 10:14:51;;;;;;;21.13;5.55;;;;;;;;;;4952857;28;20399;-67
2022/10/07 10:17:28;;;;;;;27.42;6.20;;;;;;;;;;4970483;28;20093;-65
2022/10/07 10:19:55;;;;;;;26.85;6.53;;;;;;;;;;4969975;28;20098;-71
2022/10/07 10:22:29;;;;;;;25.77;6.18;;;;;;;;;;4974098;28;20073;-69
2022/10/07 10:28:00;;;;;;;27.27;6.68;;;;;;;;;;4974182;28;20141;-71
2022/10/07 10:30:27;;;;;;;22.13;5.80;;;;;;;;;;4974370;28;20065;-68
2022/10/07 10:32:56;;;;;;;21.88;6.07;;;;;;;;;;4973773;28;20426;-77
2022/10/07 10:35:22;;;;;;;25.08;5.50;;;;;;;;;;4972882;28;20142;-70
2022/10/07 10:38:00;;;;;;;27.52;5.68;;;;;;;;;;4974168;28;20111;-67
2022/10/07 10:40:35;;;;;;;25.10;5.50;;;;;;;;;;4974325;28;20111;-74
2022/10/07 10:43:01;;;;;;;25.48;5.07;;;;;;;;;;4972835;28;20355;-68
2022/10/07 10:45:27;;;;;;;23.00;4.93;;;;;;;;;;4974308;28;20050;-70
2022/10/07 10:47:53;;;;;;;20.08;5.47;;;;;;;;;;4973593;28;20066;-75
2022/10/07 10:50:27;;;;;;;22.83;5.70;;;;;;;;;;4973942;28;20054;-78
2022/10/07 10:52:56;;;;;;;26.20;5.15;;;;;;;;;;4974024;28;20097;-76
2022/10/07 10:55:35;;;;;;;22.05;4.88;;;;;;;;;;4973765;28;20101;-68
2022/10/07 10:58:24;;;;;;;25.00;5.05;;;;;;;;;;4973620;28;20053;-75
2022/10/07 11:00:57;;;;;;;18.63;4.72;;;;;;;;;;4940232;28;20063;-69
2022/10/07 11:03:29;;;;;;;22.42;4.75;;;;;;;;;;4974470;28;20050;-68
2022/10/07 11:05:56;;;;;;;22.88;4.72;;;;;;;;;;4973623;28;20051;-69
2022/10/07 11:08:24;;;;;;;20.98;4.90;;;;;;;;;;4973238;28;20059;-70
2022/10/07 11:10:57;;;;;;;22.35;4.38;;;;;;;;;;4972003;28;20058;-73
2022/10/07 11:13:39;;;;;;;20.75;5.10;;;;;;;;;;4973268;28;20118;-69
2022/10/07 11:16:26;;;;;;;23.75;5.93;;;;;;;;;;4973295;28;20070;-74
2022/10/07 11:19:15;;;;;;;20.60;5.15;;;;;;;;;;4981992;28;20077;-78
2022/10/07 11:21:44;;;;;;;21.85;4.80;;;;;;;;;;4983939;28;20199;-69
2022/10/07 11:24:14;;;;;;;25.05;9.32;;;;;;;;;;5012067;28;20137;-70
2022/10/07 11:26:45;;;;;;;20.13;5.22;;;;;;;;;;4994063;28;20438;-73
2022/10/07 11:29:38;;;;;;;20.92;4.63;;;;;;;;;;4994246;28;20133;-70
2022/10/07 11:32:04;;;;;;;18.88;4.07;;;;;;;;;;4970829;28;20199;-68
2022/10/07 11:34:52;;;;;;;21.65;4.07;;;;;;;;;;5011939;28;20086;-71
2022/10/07 11:37:28;;;;;;;21.35;4.45;;;;;;;;;;5011858;28;20042;-69
2022/10/07 11:39:55;;;;;;;15.43;4.22;;;;;;;;;;4994434;28;20474;-68
2022/10/07 11:42:26;;;;;;;21.33;3.88;;;;;;;;;;5012389;28;20085;-80
2022/10/07 11:45:01;;;;;;;17.95;4.13;;;;;;;;;;5012158;28;20102;-66
2022/10/07 11:47:31;;;;;;;24.95;4.85;;;;;;;;;;5011294;28;20061;-66
2022/10/07 11:50:01;;;;;;;19.70;4.47;;;;;;;;;;5011419;28;20143;-67
2022/10/07 11:52:29;;;;;;;22.27;4.30;;;;;;;;;;5011139;28;20566;-68
2022/10/07 11:55:07;;;;;;;15.48;4.13;;;;;;;;;;5011659;28;20474;-69
2022/10/07 11:57:35;;;;;;;20.33;4.75;;;;;;;;;;5011422;28;20080;-68
2022/10/07 12:00:07;;;;;;;21.50;4.10;;;;;;;;;;4993632;28;20054;-67
2022/10/07 12:02:37;;;;;;;17.77;4.38;;;;;;;;;;4993711;28;20130;-65
2022/10/07 12:05:03;;;;;;;20.52;4.72;;;;;;;;;;5011393;28;20046;-71
2022/10/07 12:07:48;;;;;;;23.08;4.38;;;;;;;;;;4993642;28;20066;-67
2022/10/07 12:10:20;;;;;;;19.05;4.40;;;;;;;;;;5010498;28;20049;-71
2022/10/07 12:12:54;;;;;;;30.83;5.30;;;;;;;;;;5010963;28;20054;-66
2022/10/07 12:15:38;;;;;;;18.17;4.95;;;;;;;;;;4992824;28;20046;-71
2022/10/07 12:18:04;;;;;;;19.58;4.03;;;;;;;;;;5011113;28;20118;-67
2022/10/07 12:20:41;;;;;;;22.35;4.53;;;;;;;;;;5011028;28;20053;-71
2022/10/07 12:23:21;;;;;;;17.83;4.50;;;;;;;;;;5011103;28;20050;-65
2022/10/07 12:25:48;;;;;;;20.15;4.03;;;;;;;;;;4993383;28;20076;-67
2022/10/07 12:28:15;;;;;;;21.05;4.45;;;;;;;;;;5011709;28;20110;-77
2022/10/07 12:30:49;;;;;;;23.33;4.72;;;;;;;;;;5010738;28;20335;-72
2022/10/07 12:33:28;;;;;;;23.00;4.40;;;;;;;;;;5010896;28;20050;-81
2022/10/07 12:35:54;;;;;;;16.83;4.50;;;;;;;;;;5011191;28;20065;-68
2022/10/07 12:38:24;;;;;;;;;;;;;;;;;;5010986;28;20061;-68
2022/10/07 12:41:04;;;;;;;20.70;4.20;;;;;;;;;;4993181;28;19984;-66
2022/10/07 12:43:36;;;;;;;19.08;4.18;;;;;;;;;;5010626;28;20049;-65
2022/10/07 12:46:09;;;;;;;23.60;4.00;;;;;;;;;;4993124;28;20046;-66
2022/10/07 12:48:44;;;;;;;22.95;4.53;;;;;;;;;;5010800;28;20471;-69
2022/10/07 12:51:18;;;;;;;24.80;4.70;;;;;;;;;;4993919;28;20159;-71
2022/10/07 12:53:46;;;;;;;18.15;4.15;;;;;;;;;;5011116;28;20054;-66
2022/10/07 12:56:24;;;;;;;21.30;4.18;;;;;;;;;;5010380;28;20050;-66
2022/10/07 13:01:58;;;;;;;18.55;3.80;;;;;;;;;;5010511;28;20057;-68
2022/10/07 13:04:38;;;;;;;16.33;3.65;;;;;;;;;;4992702;28;20335;-70
2022/10/07 13:07:13;;;;;;;20.25;4.47;;;;;;;;;;4992781;28;20064;-68
2022/10/07 13:09:58;;;;;;;16.38;3.78;;;;;;;;;;4992582;28;20132;-66
2022/10/07 13:12:34;;;;;;;18.15;3.55;;;;;;;;;;5009864;28;20053;-66
2022/10/07 13:15:03;;;;;;;18.85;3.78;;;;;;;;;;5010465;28;20046;-66
2022/10/07 13:17:39;;;;;;;17.00;3.10;;;;;;;;;;5010101;28;20050;-67
2022/10/07 13:20:20;;;;;;;21.25;3.83;;;;;;;;;;5009796;28;20064;-72
2022/10/07 13:22:47;;;;;;;20.55;5.13;;;;;;;;;;5010034;28;20053;-66
2022/10/07 13:25:14;;;;;;;20.58;4.00;;;;;;;;;;5010278;28;20046;-68
2022/10/07 13:27:45;;;;;;;18.52;3.80;;;;;;;;;;5010075;28;20051;-66
2022/10/07 13:30:31;;;;;;;20.73;3.80;;;;;;;;;;5009941;28;20049;-66
2022/10/07 13:33:11;;;;;;;20.52;3.88;;;;;;;;;;5010333;28;20098;-66
2022/10/07 13:35:37;;;;;;;19.25;4.00;;;;;;;;;;4992079;28;20097;-66
2022/10/07 13:38:03;;;;;;;16.55;3.60;;;;;;;;;;5009947;28;20152;-66
2022/10/07 13:40:34;;;;;;;17.55;3.60;;;;;;;;;;4992221;28;20441;-66
2022/10/07 13:43:02;;;;;;;19.25;4.25;;;;;;;;;;5009943;28;20132;-67
2022/10/07 13:45:28;;;;;;;16.50;3.92;;;;;;;;;;4992087;28;20592;-65
2022/10/07 13:47:54;;;;;;;;;;;;;;;;;;4992670;28;20412;-66
2022/10/07 13:50:25;;;;;;;21.05;5.25;;;;;;;;;;4991919;28;19969;-71
2022/10/07 13:52:52;;;;;;;17.45;4.07;;;;;;;;;;4976260;28;20056;-66
2022/10/07 13:55:38;;;;;;;17.80;4.00;;;;;;;;;;5008972;28;20442;-68
2022/10/07 13:58:05;;;;;;;19.27;5.32;;;;;;;;;;5009649;28;20177;-68
2022/10/07 14:00:40;;;;;;;22.25;4.75;;;;;;;;;;5009630;28;20046;-66
2022/10/07 14:03:16;;;;;;;18.23;4.47;;;;;;;;;;5009715;28;20156;-67
2022/10/07 14:05:47;;;;;;;17.50;3.95;;;;;;;;;;4991896;28;20046;-67
2022/10/07 14:08:17;;;;;;;21.58;4.35;;;;;;;;;;5009536;28;20064;-67
2022/10/07 14:11:04;;;;;;;20.63;4.53;;;;;;;;;;5010225;28;20050;-66
2022/10/07 14:13:30;;;;;;;;;;;;;;;;;;5009703;28;20050;-67
2022/10/07 14:15:57;;;;;;;20.48;5.15;;;;;;;;;;5010359;28;19932;-67
2022/10/07 14:18:26;;;;;;;20.52;4.35;;;;;;;;;;5009231;28;20082;-68
2022/10/07 14:21:06;;;;;;;22.67;4.90;;;;;;;;;;5010010;28;20068;-69
2022/10/07 14:23:33;;;;;;;15.77;4.03;;;;;;;;;;4991527;28;20046;-68
2022/10/07 14:26:02;;;;;;;19.55;4.57;;;;;;;;;;5009654;28;20085;-74
2022/10/07 14:28:30;;;;;;;19.45;4.53;;;;;;;;;;4991583;28;20124;-71
2022/10/07 14:37:08;;;;;;;21.33;6.25;;;;;;;;;;4991483;28;20054;-68
2022/10/07 14:39:46;;;;;;;23.75;5.90;;;;;;;;;;5009138;28;20042;-75
2022/10/07 14:42:24;;;;;;;20.77;6.45;;;;;;;;;;5009195;28;20137;-68
2022/10/07 14:44:51;;;;;;;21.60;5.00;;;;;;;;;;5009455;28;20070;-67
2022/10/07 14:47:23;;;;;;;20.85;4.65;;;;;;;;;;5009222;28;20442;-66
2022/10/07 14:49:51;;;;;;;19.88;4.20;;;;;;;;;;5008890;28;20049;-66
2022/10/07 14:52:17;;;;;;;18.73;4.20;;;;;;;;;;5009206;28;20057;-67
2022/10/07 14:54:43;;;;;;;15.20;3.65;;;;;;;;;;5008730;28;20057;-68
2022/10/07 14:57:09;;;;;;;19.52;4.10;;;;;;;;;;5009013;28;20085;-69
2022/10/07 14:59:36;;;;;;;18.02;4.47;;;;;;;;;;5008380;28;20496;-68
2022/10/07 15:02:02;;;;;;;18.98;3.53;;;;;;;;;;5009003;28;20046;-67
2022/10/07 15:04:28;;;;;;;;;;;;;;;;;;5010367;28;20054;-68
2022/10/07 15:06:55;;;;;;;19.00;4.15;;;;;;;;;;4993567;28;19981;-66
2022/10/07 15:09:21;;;;;;;15.30;3.95;;;;;;;;;;5012204;28;20046;-67
2022/10/07 15:11:47;;;;;;;15.07;3.88;;;;;;;;;;5011929;28;20042;-73